Time;durP1;ratioP1;P1;durP2;ratioP2;P2;SDS_P1;SDS_P2;PMS_P1;PMS_P2;Temp;Humidity;BMP_temperature;BMP_pressure;BME280_temperature;BME280_humidity;BME280_pressure;Samples;Min_cycle;Max_cycle;Signal;HPM_P1;HPM_P2
2021/07/06 00:02:19;;;;;;;0.77;0.77;;;19.70;99.90;;;;;;5009603;28;20169;-81
2021/07/06 00:04:47;;;;;;;1.58;0.93;;;19.60;99.90;;;;;;4994309;28;20665;-80
2021/07/06 00:07:15;;;;;;;0.65;0.65;;;19.60;99.90;;;;;;4993939;28;20208;-80
2021/07/06 00:09:40;;;;;;;0.90;0.70;;;19.50;99.90;;;;;;4993664;28;20224;-80
2021/07/06 00:12:06;;;;;;;0.63;0.63;;;19.50;99.90;;;;;;4994020;28;20189;-80
2021/07/06 00:14:32;;;;;;;1.67;0.90;;;19.40;99.90;;;;;;4993702;28;20185;-80
2021/07/06 00:16:58;;;;;;;1.40;0.90;;;19.40;99.90;;;;;;4993974;28;20175;-80
2021/07/06 00:19:23;;;;;;;2.03;0.77;;;19.50;99.90;;;;;;4993756;28;20193;-79
2021/07/06 00:21:49;;;;;;;0.75;0.75;;;19.60;99.90;;;;;;4993693;28;20177;-79
2021/07/06 00:24:14;;;;;;;0.82;0.70;;;19.60;99.90;;;;;;4993488;28;20185;-79
2021/07/06 00:26:40;;;;;;;0.88;0.80;;;19.60;99.90;;;;;;4993665;28;20244;-79
2021/07/06 00:29:06;;;;;;;2.58;0.80;;;19.50;99.90;;;;;;4993685;28;20169;-79
2021/07/06 00:31:31;;;;;;;3.35;0.73;;;19.50;99.90;;;;;;4993643;28;20308;-79
2021/07/06 00:33:57;;;;;;;6.72;0.90;;;19.40;99.90;;;;;;4993925;28;20200;-79
2021/07/06 00:36:23;;;;;;;0.68;0.68;;;19.40;99.90;;;;;;4993656;28;20240;-79
2021/07/06 00:38:49;;;;;;;0.47;0.47;;;19.40;99.90;;;;;;4993466;28;20667;-80
2021/07/06 00:41:14;;;;;;;1.00;0.70;;;19.40;99.90;;;;;;4993826;28;20180;-79
2021/07/06 00:43:40;;;;;;;0.60;0.60;;;19.40;99.90;;;;;;4993337;28;20197;-79
2021/07/06 00:46:06;;;;;;;0.85;0.60;;;19.50;99.90;;;;;;4993077;28;20224;-79
2021/07/06 00:48:32;;;;;;;1.77;0.70;;;19.50;99.90;;;;;;4993419;28;20586;-79
2021/07/06 00:50:58;;;;;;;0.70;0.70;;;19.60;99.90;;;;;;4992241;28;20681;-79
2021/07/06 00:53:25;;;;;;;0.60;0.60;;;19.50;99.90;;;;;;4993483;28;20200;-79
2021/07/06 00:55:56;;;;;;;2.08;0.60;;;19.50;99.90;;;;;;4993114;28;20174;-79
2021/07/06 00:58:23;;;;;;;0.73;0.73;;;19.60;99.90;;;;;;4993460;28;20184;-80
2021/07/06 01:00:49;;;;;;;1.50;0.65;;;19.60;99.90;;;;;;4991649;28;20177;-79
2021/07/06 01:03:15;;;;;;;0.73;0.73;;;19.70;99.90;;;;;;4993031;28;20193;-80
2021/07/06 01:05:40;;;;;;;2.00;0.88;;;19.80;99.90;;;;;;4993398;28;20197;-80
2021/07/06 01:08:07;;;;;;;0.65;0.52;;;19.70;99.90;;;;;;4993556;28;20185;-80
2021/07/06 01:10:33;;;;;;;0.80;0.80;;;19.70;99.90;;;;;;4993371;28;20201;-80
2021/07/06 01:12:59;;;;;;;4.32;1.20;;;19.70;99.90;;;;;;4993265;28;20228;-80
2021/07/06 01:15:27;;;;;;;4.53;1.10;;;19.50;99.90;;;;;;4992924;28;20228;-79
2021/07/06 01:18:06;;;;;;;0.80;0.73;;;19.60;99.90;;;;;;4992888;28;20244;-80
2021/07/06 01:20:34;;;;;;;1.90;0.85;;;19.50;99.90;;;;;;4992982;28;20184;-80
2021/07/06 01:23:00;;;;;;;0.60;0.60;;;19.50;99.90;;;;;;4993029;28;20296;-79
2021/07/06 01:25:25;;;;;;;0.52;0.52;;;19.50;99.90;;;;;;5008079;28;20256;-80
2021/07/06 01:27:51;;;;;;;2.35;0.88;;;19.30;99.90;;;;;;5008310;28;20173;-80
2021/07/06 01:30:17;;;;;;;10.13;0.80;;;19.30;99.90;;;;;;4991658;28;20215;-80
2021/07/06 01:32:46;;;;;;;1.08;0.77;;;19.30;99.90;;;;;;4992625;28;20165;-80
2021/07/06 01:35:14;;;;;;;0.82;0.70;;;19.20;99.90;;;;;;4992741;28;20488;-80
2021/07/06 01:38:00;;;;;;;5.90;0.75;;;19.20;99.90;;;;;;4993064;28;20170;-80
2021/07/06 01:40:28;;;;;;;1.05;0.70;;;19.40;99.90;;;;;;5016535;28;20168;-80
2021/07/06 01:42:55;;;;;;;0.65;0.65;;;19.50;99.90;;;;;;5012137;28;20184;-80
2021/07/06 01:45:26;;;;;;;0.60;0.60;;;19.40;99.90;;;;;;5012242;28;20172;-80
2021/07/06 01:48:03;;;;;;;1.33;1.23;;;19.40;99.90;;;;;;5012412;28;20173;-80
2021/07/06 01:50:31;;;;;;;0.60;0.60;;;19.40;99.90;;;;;;5012661;28;20413;-80
2021/07/06 01:53:00;;;;;;;0.88;0.77;;;19.30;99.90;;;;;;5012374;28;20200;-80
2021/07/06 01:55:28;;;;;;;1.25;0.75;;;19.20;99.90;;;;;;5012298;28;20168;-80
2021/07/06 01:57:55;;;;;;;2.65;0.90;;;19.20;99.90;;;;;;5014775;28;20575;-80
2021/07/06 02:00:24;;;;;;;2.63;1.35;;;19.30;99.90;;;;;;5015988;28;20226;-80
2021/07/06 02:02:49;;;;;;;5.68;0.75;;;19.40;99.90;;;;;;5015624;28;20179;-80
2021/07/06 02:05:18;;;;;;;0.80;0.80;;;19.30;99.90;;;;;;5015916;28;20514;-79
2021/07/06 02:07:47;;;;;;;3.45;1.00;;;19.30;99.90;;;;;;5016229;28;20195;-80
2021/07/06 02:10:15;;;;;;;3.17;0.80;;;19.40;99.90;;;;;;5016181;28;20637;-80
2021/07/06 02:12:41;;;;;;;0.65;0.65;;;19.30;99.90;;;;;;5030894;28;20208;-80
2021/07/06 02:15:10;;;;;;;3.10;1.02;;;19.20;99.90;;;;;;5015816;28;20251;-80
2021/07/06 02:17:36;;;;;;;6.32;0.93;;;19.30;99.90;;;;;;5014409;28;20172;-79
2021/07/06 02:20:06;;;;;;;6.03;0.88;;;19.40;99.90;;;;;;5015943;28;20195;-80
2021/07/06 02:22:31;;;;;;;0.70;0.70;;;19.40;99.90;;;;;;5016021;28;20157;-80
2021/07/06 02:24:57;;;;;;;1.42;1.00;;;19.40;99.90;;;;;;5015752;28;20223;-80
2021/07/06 02:27:22;;;;;;;1.80;0.98;;;19.40;99.90;;;;;;5015808;28;20203;-80
2021/07/06 02:29:48;;;;;;;2.35;0.82;;;19.40;99.90;;;;;;5015947;28;20637;-80
2021/07/06 02:32:13;;;;;;;0.88;0.70;;;19.50;99.90;;;;;;5015320;28;20177;-80
2021/07/06 02:34:39;;;;;;;1.85;1.02;;;19.60;99.90;;;;;;5015337;28;20188;-80
2021/07/06 02:37:05;;;;;;;16.10;1.02;;;19.70;99.90;;;;;;5030840;28;20180;-80
2021/07/06 02:39:30;;;;;;;4.20;1.10;;;19.80;99.90;;;;;;5015473;28;20256;-79
2021/07/06 02:41:56;;;;;;;3.58;0.88;;;19.90;99.90;;;;;;5015674;28;20173;-80
2021/07/06 02:44:21;;;;;;;3.08;1.00;;;19.70;99.90;;;;;;5013927;28;20649;-80
2021/07/06 02:46:47;;;;;;;0.77;0.77;;;19.60;99.90;;;;;;5015340;28;20254;-80
2021/07/06 02:49:13;;;;;;;6.00;1.15;;;19.50;99.90;;;;;;5015212;28;20160;-80
2021/07/06 02:51:38;;;;;;;0.95;0.90;;;19.60;99.90;;;;;;5015381;28;20255;-80
2021/07/06 02:54:04;;;;;;;0.88;0.88;;;19.60;99.90;;;;;;5015235;28;20207;-80
2021/07/06 02:56:29;;;;;;;1.13;0.90;;;19.60;99.90;;;;;;5030235;28;20192;-80
2021/07/06 02:58:55;;;;;;;1.92;1.10;;;19.70;99.90;;;;;;5015259;28;20176;-80
2021/07/06 03:01:21;;;;;;;2.33;1.00;;;19.70;99.90;;;;;;5015303;28;20176;-80
2021/07/06 03:03:46;;;;;;;5.20;1.58;;;19.70;99.90;;;;;;5013849;28;20212;-80
2021/07/06 03:06:12;;;;;;;3.40;1.20;;;19.70;99.90;;;;;;5030197;28;20242;-80
2021/07/06 03:08:38;;;;;;;1.52;0.95;;;19.70;99.90;;;;;;5014682;28;20672;-80
2021/07/06 03:11:03;;;;;;;1.10;1.00;;;19.80;99.90;;;;;;5014953;28;20169;-80
2021/07/06 03:13:29;;;;;;;2.03;1.05;;;19.80;99.90;;;;;;5015176;28;20189;-80
2021/07/06 03:15:55;;;;;;;17.35;1.30;;;19.70;99.90;;;;;;5014869;28;20165;-80
2021/07/06 03:18:20;;;;;;;1.30;0.80;;;19.70;99.90;;;;;;5014871;28;20172;-80
2021/07/06 03:20:48;;;;;;;6.88;1.13;;;19.90;99.90;;;;;;5014808;28;20173;-80
2021/07/06 03:23:13;;;;;;;1.63;1.27;;;19.90;99.90;;;;;;5014588;28;20553;-80
2021/07/06 03:25:41;;;;;;;6.28;1.13;;;20.00;99.90;;;;;;5014351;28;20208;-80
2021/07/06 03:28:06;;;;;;;2.47;0.93;;;20.00;99.90;;;;;;5030626;28;20180;-80
2021/07/06 03:30:35;;;;;;;7.15;1.35;;;19.90;99.90;;;;;;5014653;28;20642;-79
2021/07/06 03:33:01;;;;;;;6.18;1.20;;;19.80;99.90;;;;;;5015071;28;20193;-80
2021/07/06 03:35:29;;;;;;;3.03;1.20;;;19.80;99.90;;;;;;5014272;28;20228;-79
2021/07/06 03:37:56;;;;;;;1.92;1.20;;;19.70;99.90;;;;;;5015214;28;20168;-80
2021/07/06 03:40:22;;;;;;;2.38;1.40;;;19.70;99.90;;;;;;5014835;28;20164;-80
2021/07/06 03:42:49;;;;;;;5.10;1.08;;;19.70;99.90;;;;;;5014741;28;20169;-80
2021/07/06 03:45:16;;;;;;;5.68;1.13;;;19.70;99.90;;;;;;5014927;28;20633;-80
2021/07/06 03:47:42;;;;;;;3.63;0.90;;;19.70;99.90;;;;;;5015707;28;20754;-81
2021/07/06 03:50:11;;;;;;;3.03;0.90;;;19.70;99.90;;;;;;5015557;28;20168;-79
2021/07/06 03:52:37;;;;;;;4.88;1.27;;;19.90;99.90;;;;;;5014920;28;20191;-79
2021/07/06 03:55:05;;;;;;;1.40;0.90;;;19.70;99.90;;;;;;5012955;28;20256;-79
2021/07/06 03:57:31;;;;;;;4.53;0.90;;;19.70;99.90;;;;;;5012784;28;20207;-79
2021/07/06 04:00:01;;;;;;;3.28;1.20;;;19.70;99.90;;;;;;5013622;28;20165;-81
2021/07/06 04:02:27;;;;;;;2.83;1.05;;;19.60;99.90;;;;;;5012615;28;20260;-80
2021/07/06 04:04:52;;;;;;;1.80;1.05;;;19.80;99.90;;;;;;5013520;28;20271;-80
2021/07/06 04:07:19;;;;;;;4.88;1.25;;;19.80;99.90;;;;;;5012416;28;20243;-80
2021/07/06 04:09:45;;;;;;;2.58;1.42;;;19.80;99.90;;;;;;5013973;28;20160;-80
2021/07/06 04:12:11;;;;;;;5.03;1.20;;;19.90;99.90;;;;;;5013703;28;20169;-80
2021/07/06 04:14:37;;;;;;;2.78;1.38;;;20.00;99.90;;;;;;5013863;28;20315;-80
2021/07/06 04:17:02;;;;;;;1.85;0.90;;;19.90;99.90;;;;;;5013709;28;20268;-80
2021/07/06 04:19:28;;;;;;;3.10;1.20;;;20.00;99.90;;;;;;5011242;28;20771;-80
2021/07/06 04:21:54;;;;;;;4.45;1.10;;;20.10;99.90;;;;;;5013495;28;20231;-80
2021/07/06 04:24:19;;;;;;;3.42;1.30;;;20.10;99.90;;;;;;5013433;28;20193;-80
2021/07/06 04:26:45;;;;;;;6.55;1.13;;;20.10;99.90;;;;;;5013764;28;20669;-79
2021/07/06 04:29:11;;;;;;;1.98;1.30;;;20.10;99.90;;;;;;5013562;28;20629;-80
2021/07/06 04:31:37;;;;;;;1.17;0.95;;;20.10;99.90;;;;;;5013766;28;20314;-80
2021/07/06 04:34:03;;;;;;;3.22;1.45;;;20.10;99.90;;;;;;5013717;28;20187;-80
2021/07/06 04:36:29;;;;;;;1.75;1.00;;;20.10;99.90;;;;;;5013096;28;20172;-80
2021/07/06 04:38:56;;;;;;;7.72;0.90;;;20.10;99.90;;;;;;5013287;28;20175;-80
2021/07/06 04:41:21;;;;;;;1.67;1.10;;;20.10;99.90;;;;;;5013773;28;20179;-80
2021/07/06 04:43:47;;;;;;;1.58;1.08;;;20.20;99.90;;;;;;5012210;28;20192;-80
2021/07/06 04:46:13;;;;;;;7.45;1.20;;;20.30;99.90;;;;;;5013720;28;20200;-80
2021/07/06 04:48:38;;;;;;;2.25;1.20;;;20.20;99.90;;;;;;5013914;28;20169;-80
2021/07/06 04:51:09;;;;;;;2.72;0.95;;;20.20;99.90;;;;;;5034510;28;20169;-80
2021/07/06 04:53:38;;;;;;;9.10;1.10;;;20.10;99.90;;;;;;5018753;28;20727;-79
2021/07/06 04:56:04;;;;;;;4.20;1.27;;;20.20;99.90;;;;;;5026623;28;20145;-79
2021/07/06 04:58:29;;;;;;;1.60;1.10;;;20.20;99.90;;;;;;5045114;28;20188;-79
2021/07/06 05:00:56;;;;;;;2.15;0.82;;;20.10;99.90;;;;;;5029693;28;20184;-80
2021/07/06 05:03:22;;;;;;;9.63;1.30;;;20.20;99.90;;;;;;5031617;28;20207;-80
2021/07/06 05:05:49;;;;;;;3.03;1.13;;;20.30;99.90;;;;;;5032997;28;20215;-80
2021/07/06 05:08:14;;;;;;;4.40;1.60;;;20.30;99.90;;;;;;5032313;28;20181;-80
2021/07/06 05:10:40;;;;;;;2.53;0.90;;;20.40;99.90;;;;;;5032929;28;20189;-79
2021/07/06 05:13:06;;;;;;;16.65;1.20;;;20.40;99.90;;;;;;5024517;28;20283;-79
2021/07/06 05:15:32;;;;;;;1.13;1.00;;;20.40;99.90;;;;;;5013335;28;20172;-80
2021/07/06 05:17:57;;;;;;;3.50;1.08;;;20.40;99.90;;;;;;5012076;28;20204;-80
2021/07/06 05:20:23;;;;;;;6.55;1.02;;;20.50;99.90;;;;;;5011899;28;20173;-80
2021/07/06 05:22:48;;;;;;;1.00;0.90;;;20.60;99.90;;;;;;5010027;28;20195;-80
2021/07/06 05:25:15;;;;;;;9.57;0.95;;;20.40;99.90;;;;;;5012665;28;20184;-80
2021/07/06 05:27:41;;;;;;;7.55;1.15;;;20.20;99.90;;;;;;5013108;28;20293;-80
2021/07/06 05:30:08;;;;;;;5.50;0.95;;;20.20;99.90;;;;;;5012971;28;20164;-80
2021/07/06 05:32:37;;;;;;;4.78;1.00;;;20.20;99.90;;;;;;5016029;28;20198;-81
2021/07/06 05:35:03;;;;;;;2.35;1.15;;;20.30;99.90;;;;;;5016388;28;20162;-80
2021/07/06 05:37:29;;;;;;;2.03;1.30;;;20.20;99.90;;;;;;5031856;28;20251;-81
2021/07/06 05:39:55;;;;;;;4.03;1.02;;;20.10;99.90;;;;;;5016539;28;20590;-81
2021/07/06 05:42:20;;;;;;;3.40;0.77;;;20.10;99.90;;;;;;5016392;28;20506;-81
2021/07/06 05:44:46;;;;;;;0.80;0.80;;;20.00;99.90;;;;;;5016274;28;20218;-80
2021/07/06 05:47:12;;;;;;;1.92;0.73;;;20.00;99.90;;;;;;5016353;28;20204;-84
2021/07/06 05:49:38;;;;;;;1.45;0.80;;;20.00;99.90;;;;;;5015425;28;20176;-82
2021/07/06 05:52:04;;;;;;;2.78;0.65;;;19.90;99.90;;;;;;5015240;28;20287;-82
2021/07/06 05:54:29;;;;;;;2.88;1.00;;;19.80;99.90;;;;;;5014723;28;20196;-80
2021/07/06 05:56:55;;;;;;;0.70;0.70;;;19.80;99.90;;;;;;5015966;28;20252;-82
2021/07/06 05:59:22;;;;;;;0.95;0.68;;;19.90;99.90;;;;;;5015292;28;20306;-78
2021/07/06 06:01:47;;;;;;;2.80;1.25;;;19.90;99.90;;;;;;5014399;28;20223;-77
2021/07/06 06:04:13;;;;;;;1.42;0.50;;;19.90;99.90;;;;;;5010998;28;20594;-79
2021/07/06 06:06:39;;;;;;;2.00;0.70;;;19.90;99.90;;;;;;4996959;28;20239;-78
2021/07/06 06:09:05;;;;;;;2.50;0.63;;;19.90;99.90;;;;;;5031174;28;20196;-78
2021/07/06 06:11:30;;;;;;;1.05;0.65;;;20.00;99.90;;;;;;5015673;28;20272;-78
2021/07/06 06:13:56;;;;;;;0.65;0.55;;;19.90;99.90;;;;;;4996682;28;20189;-78
2021/07/06 06:16:22;;;;;;;3.78;0.55;;;19.80;99.90;;;;;;4995892;28;20540;-78
2021/07/06 06:18:54;;;;;;;2.83;0.80;;;19.80;99.90;;;;;;4995934;28;20173;-78
2021/07/06 06:21:21;;;;;;;3.78;0.68;;;19.70;99.90;;;;;;4995992;28;20173;-76
2021/07/06 06:23:47;;;;;;;5.63;0.70;;;19.80;99.90;;;;;;4995317;28;20213;-75
2021/07/06 06:26:12;;;;;;;1.40;0.50;;;19.70;99.90;;;;;;4995738;28;20240;-77
2021/07/06 06:28:40;;;;;;;5.55;0.70;;;19.80;99.90;;;;;;4995848;28;20169;-76
2021/07/06 06:31:06;;;;;;;1.25;0.68;;;19.80;99.90;;;;;;5008874;28;20188;-80
2021/07/06 06:33:32;;;;;;;8.15;0.60;;;19.90;99.90;;;;;;4996867;28;20221;-78
2021/07/06 06:35:58;;;;;;;0.85;0.60;;;20.00;99.90;;;;;;4994070;28;20433;-79
2021/07/06 06:38:23;;;;;;;2.92;0.77;;;20.10;99.90;;;;;;4995912;28;20169;-84
2021/07/06 06:40:49;;;;;;;2.88;0.50;;;19.90;99.90;;;;;;4996546;28;20188;-84
2021/07/06 06:43:15;;;;;;;2.65;0.95;;;20.00;99.90;;;;;;4995580;28;20561;-85
2021/07/06 06:45:41;;;;;;;2.40;0.63;;;20.10;99.90;;;;;;4995057;28;20181;-83
2021/07/06 06:48:06;;;;;;;2.88;0.63;;;20.10;99.90;;;;;;4996321;28;20177;-83
2021/07/06 06:50:32;;;;;;;2.78;0.80;;;19.90;99.90;;;;;;4996338;28;20196;-87
2021/07/06 06:52:58;;;;;;;10.68;0.93;;;20.00;99.90;;;;;;4995187;28;20236;-88
2021/07/06 06:55:23;;;;;;;4.03;0.70;;;20.10;99.90;;;;;;4995224;28;20189;-82
2021/07/06 06:57:49;;;;;;;5.20;0.98;;;20.20;99.90;;;;;;4996107;28;20172;-88
2021/07/06 07:00:15;;;;;;;7.13;0.70;;;20.40;99.90;;;;;;4995104;28;20166;-94
2021/07/06 07:02:43;;;;;;;1.15;0.75;;;20.80;99.90;;;;;;4995118;28;20664;-88
2021/07/06 07:05:11;;;;;;;1.48;0.52;;;21.20;99.90;;;;;;5011757;28;20169;-86
2021/07/06 07:07:37;;;;;;;4.30;0.98;;;21.70;99.90;;;;;;4995718;28;20263;-87
2021/07/06 07:10:05;;;;;;;2.03;0.82;;;22.00;99.90;;;;;;4996127;28;20169;-81
2021/07/06 07:12:31;;;;;;;2.13;0.50;;;21.80;99.90;;;;;;4995999;28;20173;-86
2021/07/06 07:14:56;;;;;;;2.42;0.43;;;21.90;99.90;;;;;;4995868;28;20243;-86
2021/07/06 07:17:23;;;;;;;4.25;0.73;;;21.70;99.90;;;;;;4995964;28;20166;-80
2021/07/06 07:19:49;;;;;;;1.80;0.70;;;22.00;99.90;;;;;;4995699;28;20630;-86
2021/07/06 07:22:15;;;;;;;5.50;0.68;;;22.20;99.90;;;;;;4995797;28;20237;-84
2021/07/06 07:24:40;;;;;;;2.95;0.70;;;22.30;99.90;;;;;;4995464;28;20200;-83
2021/07/06 07:27:06;;;;;;;6.00;0.65;;;22.00;99.90;;;;;;4996446;28;20208;-82
2021/07/06 07:29:32;;;;;;;0.75;0.50;;;22.10;99.90;;;;;;4996410;28;20193;-92
2021/07/06 07:31:58;;;;;;;2.50;0.55;;;22.40;99.90;;;;;;5011413;28;20172;-83
2021/07/06 07:34:26;;;;;;;1.27;0.40;;;23.00;99.90;;;;;;4996381;28;21262;-83
2021/07/06 07:36:52;;;;;;;5.03;0.50;;;23.20;99.90;;;;;;4996077;28;20204;-83
2021/07/06 07:39:19;;;;;;;3.67;0.73;;;23.30;99.90;;;;;;5011581;28;20169;-85
2021/07/06 07:41:45;;;;;;;5.82;0.75;;;23.40;99.90;;;;;;5011436;28;20169;-85
2021/07/06 07:44:11;;;;;;;10.98;0.70;;;23.50;99.90;;;;;;4997417;28;20204;-83
2021/07/06 07:46:37;;;;;;;9.27;0.95;;;23.50;99.90;;;;;;4997078;28;20213;-84
2021/07/06 07:49:03;;;;;;;12.13;0.70;;;23.20;99.90;;;;;;4996279;28;20165;-83
2021/07/06 07:51:28;;;;;;;2.80;0.63;;;23.00;99.90;;;;;;5009555;28;20203;-83
2021/07/06 07:53:54;;;;;;;4.80;1.45;;;22.80;99.90;;;;;;5012897;28;20258;-84
2021/07/06 07:56:20;;;;;;;8.05;0.82;;;22.50;99.90;;;;;;5013286;28;20172;-83
2021/07/06 07:58:45;;;;;;;12.85;0.80;;;22.20;99.90;;;;;;5014434;28;20180;-84
2021/07/06 08:01:11;;;;;;;2.13;0.77;;;21.70;99.90;;;;;;5014534;28;20191;-83
2021/07/06 08:03:37;;;;;;;5.07;0.55;;;21.90;99.90;;;;;;5012191;28;20196;-88
2021/07/06 08:06:02;;;;;;;7.22;0.68;;;21.90;99.90;;;;;;5012556;28;20212;-84
2021/07/06 08:08:28;;;;;;;15.23;0.82;;;22.30;99.90;;;;;;5002413;28;20177;-82
2021/07/06 08:10:56;;;;;;;8.10;0.95;;;22.20;99.90;;;;;;5025009;28;20267;-84
2021/07/06 08:13:24;;;;;;;5.47;0.73;;;22.10;99.90;;;;;;5024889;28;20890;-84
2021/07/06 08:15:51;;;;;;;2.70;0.50;;;22.20;99.90;;;;;;5012978;28;20275;-84
2021/07/06 08:18:20;;;;;;;2.50;0.63;;;22.10;99.90;;;;;;5009630;28;20184;-85
2021/07/06 08:20:47;;;;;;;2.58;0.80;;;21.70;99.90;;;;;;5005163;28;20539;-90
2021/07/06 08:23:13;;;;;;;4.32;0.70;;;21.60;99.90;;;;;;5010512;28;20193;-83
2021/07/06 08:25:39;;;;;;;1.73;0.63;;;21.90;99.90;;;;;;5013340;28;20518;-85
2021/07/06 08:28:05;;;;;;;4.63;1.02;;;21.60;99.90;;;;;;5012222;28;20281;-90
2021/07/06 08:30:31;;;;;;;2.60;0.68;;;21.50;99.90;;;;;;5012904;28;20165;-83
2021/07/06 08:32:57;;;;;;;10.68;1.00;;;21.40;99.90;;;;;;5012909;28;20546;-84
2021/07/06 08:35:23;;;;;;;9.95;1.48;;;21.20;99.90;;;;;;5012531;28;20175;-82
2021/07/06 08:37:49;;;;;;;7.90;1.23;;;21.10;99.90;;;;;;5013737;28;20180;-90
2021/07/06 08:40:15;;;;;;;8.05;1.13;;;21.10;99.90;;;;;;5013416;28;20172;-89
2021/07/06 08:42:42;;;;;;;11.45;1.13;;;21.10;99.90;;;;;;5012380;28;20179;-84
2021/07/06 08:45:09;;;;;;;22.00;1.15;;;21.40;99.90;;;;;;5012232;28;20179;-85
2021/07/06 08:47:37;;;;;;;7.45;1.10;;;21.50;99.90;;;;;;5012709;28;20546;-85
2021/07/06 08:50:06;;;;;;;7.43;1.05;;;22.00;99.90;;;;;;5013708;28;20626;-86
2021/07/06 08:52:35;;;;;;;12.00;1.05;;;21.90;99.90;;;;;;5012033;28;20239;-84
2021/07/06 08:55:01;;;;;;;9.48;0.95;;;21.70;99.90;;;;;;5013802;28;20161;-85
2021/07/06 08:57:27;;;;;;;9.18;2.67;;;21.70;99.90;;;;;;5012055;28;20195;-83
2021/07/06 08:59:53;;;;;;;5.32;2.20;;;21.90;99.90;;;;;;5011986;28;20176;-84
2021/07/06 09:02:22;;;;;;;21.73;2.17;;;21.80;99.90;;;;;;5028994;28;20217;-86
2021/07/06 09:04:53;;;;;;;4.72;1.48;;;21.40;99.90;;;;;;5013252;28;20245;-83
2021/07/06 09:07:21;;;;;;;5.43;1.15;;;21.20;99.90;;;;;;5024484;28;20396;-83
2021/07/06 09:09:49;;;;;;;1.30;0.57;;;21.10;99.90;;;;;;5009999;28;20224;-84
2021/07/06 09:12:20;;;;;;;3.97;1.15;;;21.40;99.90;;;;;;5009541;28;20262;-85
2021/07/06 09:14:49;;;;;;;3.65;1.00;;;21.50;99.90;;;;;;5012237;28;20283;-88
2021/07/06 09:17:24;;;;;;;6.13;1.35;;;21.30;99.90;;;;;;5013548;28;20180;-84
2021/07/06 09:19:53;;;;;;;3.10;0.80;;;21.40;99.90;;;;;;5029401;28;20180;-87
2021/07/06 09:22:23;;;;;;;2.97;0.80;;;21.40;99.90;;;;;;5029327;28;20172;-87
2021/07/06 09:25:02;;;;;;;16.08;0.85;;;21.40;99.90;;;;;;5012708;28;20193;-90
2021/07/06 09:27:32;;;;;;;16.92;2.03;;;21.30;99.90;;;;;;5011151;28;20207;-88
2021/07/06 09:30:07;;;;;;;2.90;0.95;;;21.40;99.90;;;;;;5012244;28;20183;-87
2021/07/06 09:32:34;;;;;;;8.63;1.38;;;21.80;99.90;;;;;;5014062;28;20180;-89
2021/07/06 09:35:08;;;;;;;7.13;1.17;;;21.80;99.90;;;;;;5014374;28;20168;-85
2021/07/06 09:38:24;;;;;;;5.53;1.00;;;22.20;99.90;;;;;;5029646;28;20172;-82
2021/07/06 09:40:50;;;;;;;7.15;1.15;;;21.90;99.90;;;;;;5027582;28;20624;-88
2021/07/06 09:43:27;;;;;;;5.45;0.80;;;21.80;99.90;;;;;;5028618;28;20195;-85
2021/07/06 09:46:05;;;;;;;6.80;1.55;;;21.80;99.90;;;;;;5014195;28;20275;-86
2021/07/06 09:48:38;;;;;;;2.70;0.90;;;22.00;99.90;;;;;;5029691;28;20172;-85
2021/07/06 09:51:19;;;;;;;4.60;0.80;;;22.00;99.90;;;;;;5028984;28;20238;-87
2021/07/06 09:53:52;;;;;;;7.88;1.38;;;22.20;99.90;;;;;;5029573;28;20303;-86
2021/07/06 09:56:22;;;;;;;5.72;0.90;;;22.20;99.90;;;;;;5012805;28;20556;-87
2021/07/06 09:58:59;;;;;;;11.85;0.90;;;22.30;99.90;;;;;;4995250;28;20185;-86
2021/07/06 10:01:26;;;;;;;3.95;0.90;;;22.50;99.90;;;;;;4992457;28;20173;-86
2021/07/06 10:03:53;;;;;;;4.22;0.90;;;22.60;99.90;;;;;;4991831;28;20226;-85
2021/07/06 10:06:24;;;;;;;1.98;1.05;;;22.60;99.90;;;;;;4994008;28;20193;-89
2021/07/06 10:08:53;;;;;;;5.88;1.08;;;22.70;99.90;;;;;;4993356;28;20667;-85
2021/07/06 10:11:22;;;;;;;5.70;1.17;;;22.70;99.90;;;;;;4992709;28;20161;-86
2021/07/06 10:13:57;;;;;;;7.68;0.90;;;23.00;99.90;;;;;;4991980;28;20189;-85
2021/07/06 10:16:23;;;;;;;12.60;1.38;;;23.40;99.90;;;;;;4992538;28;20172;-87
2021/07/06 10:18:50;;;;;;;3.30;1.10;;;23.50;99.90;;;;;;5030705;28;20243;-84
2021/07/06 10:21:19;;;;;;;19.20;0.80;;;23.30;99.90;;;;;;5016385;28;20165;-83
2021/07/06 10:23:58;;;;;;;9.75;1.00;;;23.30;99.90;;;;;;5030515;28;20231;-84
2021/07/06 10:26:27;;;;;;;6.80;0.90;;;23.20;99.90;;;;;;5013999;28;20200;-85
2021/07/06 10:28:53;;;;;;;16.00;1.25;;;23.30;99.90;;;;;;5030579;28;20691;-85
2021/07/06 10:31:21;;;;;;;20.15;0.85;;;23.20;99.90;;;;;;5015712;28;20172;-82
2021/07/06 10:33:48;;;;;;;12.63;1.17;;;23.20;99.90;;;;;;5015330;28;20184;-85
2021/07/06 10:36:16;;;;;;;2.20;0.93;;;23.10;99.90;;;;;;5030284;28;20206;-84
2021/07/06 10:38:46;;;;;;;12.80;0.90;;;22.90;99.90;;;;;;5029540;28;20264;-87
2021/07/06 10:41:17;;;;;;;4.55;1.10;;;22.80;99.90;;;;;;5030758;28;20173;-85
2021/07/06 10:43:43;;;;;;;3.83;1.17;;;22.60;99.90;;;;;;5030681;28;20242;-85
2021/07/06 10:46:15;;;;;;;8.20;1.20;;;22.60;99.90;;;;;;5014244;28;20200;-85
2021/07/06 10:48:42;;;;;;;6.65;1.30;;;22.60;99.90;;;;;;5015649;28;20175;-86
2021/07/06 10:51:09;;;;;;;6.88;0.98;;;22.50;99.90;;;;;;5015551;28;20161;-86
2021/07/06 10:53:34;;;;;;;4.43;1.35;;;22.50;99.90;;;;;;5015734;28;20220;-85
2021/07/06 10:56:06;;;;;;;3.85;0.90;;;22.50;99.90;;;;;;5026993;28;20826;-84
2021/07/06 10:58:52;;;;;;;11.23;0.85;;;22.40;99.90;;;;;;5013944;28;20208;-85
2021/07/06 11:01:36;;;;;;;7.53;1.00;;;22.30;99.90;;;;;;5013848;28;20204;-84
2021/07/06 11:04:07;;;;;;;3.28;1.08;;;22.20;99.90;;;;;;5013583;28;20282;-86
2021/07/06 11:06:45;;;;;;;3.03;0.60;;;22.30;99.90;;;;;;5013483;28;20672;-86
2021/07/06 11:09:17;;;;;;;5.30;0.80;;;22.40;99.90;;;;;;5013623;28;20234;-86
2021/07/06 11:11:43;;;;;;;14.90;1.25;;;22.50;99.90;;;;;;5014668;28;20167;-88
2021/07/06 11:14:22;;;;;;;11.25;0.85;;;22.50;99.90;;;;;;5029756;28;20560;-83
2021/07/06 11:17:02;;;;;;;2.03;0.77;;;22.40;99.90;;;;;;5029511;28;20176;-88
2021/07/06 11:19:38;;;;;;;3.58;0.90;;;22.20;99.90;;;;;;5015087;28;20169;-85
2021/07/06 11:25:39;;;;;;;4.93;1.00;;;22.60;99.90;;;;;;5010340;28;20172;-85
2021/07/06 11:28:11;;;;;;;2.20;1.10;;;22.90;99.90;;;;;;5029337;28;20612;-84
2021/07/06 11:30:49;;;;;;;7.45;0.68;;;23.00;99.90;;;;;;5013113;28;20179;-87
2021/07/06 11:33:25;;;;;;;3.60;0.77;;;23.20;99.90;;;;;;5013217;28;20207;-85
2021/07/06 11:35:55;;;;;;;4.05;0.80;;;23.30;99.90;;;;;;5013031;28;20191;-81
2021/07/06 11:38:37;;;;;;;8.90;1.50;;;23.60;99.90;;;;;;5014017;28;20247;-86
2021/07/06 11:41:07;;;;;;;5.10;0.63;;;23.40;99.90;;;;;;5013770;28;20251;-84
2021/07/06 11:43:34;;;;;;;3.83;0.90;;;23.20;99.90;;;;;;5013737;28;20216;-83
2021/07/06 11:46:05;;;;;;;3.90;0.80;;;23.30;99.90;;;;;;5013104;28;20212;-83
2021/07/06 11:48:36;;;;;;;4.43;1.10;;;22.70;99.90;;;;;;4996055;28;20652;-88
2021/07/06 11:51:05;;;;;;;2.15;1.27;;;22.60;99.90;;;;;;5015624;28;20248;-83
2021/07/06 11:53:38;;;;;;;4.65;0.93;;;22.60;99.90;;;;;;5013360;28;20652;-87
2021/07/06 11:56:09;;;;;;;2.25;0.75;;;22.60;99.90;;;;;;5014183;28;20192;-82
2021/07/06 11:58:38;;;;;;;7.78;1.40;;;22.50;99.90;;;;;;5012714;28;20173;-83
2021/07/06 12:01:11;;;;;;;9.73;1.25;;;22.30;99.90;;;;;;5015253;28;20219;-90
2021/07/06 12:03:39;;;;;;;5.75;0.75;;;22.60;99.90;;;;;;5008608;28;20224;-85
2021/07/06 12:06:14;;;;;;;3.38;0.80;;;22.50;99.90;;;;;;5007226;28;20211;-83
2021/07/06 12:08:51;;;;;;;8.93;1.05;;;22.60;99.90;;;;;;4997783;28;20242;-83
2021/07/06 12:11:27;;;;;;;5.78;1.25;;;22.60;99.90;;;;;;5009985;28;20161;-88
2021/07/06 12:13:54;;;;;;;6.22;0.75;;;22.60;99.90;;;;;;5015197;28;20208;-83
2021/07/06 12:16:22;;;;;;;7.57;0.90;;;22.50;99.90;;;;;;5015643;28;20176;-82
2021/07/06 12:18:48;;;;;;;4.90;0.82;;;22.60;99.90;;;;;;5028026;28;20157;-83
2021/07/06 12:21:25;;;;;;;3.83;0.80;;;22.40;99.90;;;;;;5047945;28;20224;-83
2021/07/06 12:23:53;;;;;;;5.97;0.98;;;22.20;99.90;;;;;;5033259;28;20264;-83
2021/07/06 12:26:19;;;;;;;12.18;1.17;;;22.30;99.90;;;;;;5031818;28;20184;-81
2021/07/06 12:28:45;;;;;;;14.10;1.42;;;22.20;99.90;;;;;;5030639;28;20244;-80
2021/07/06 12:31:27;;;;;;;2.35;0.60;;;22.10;99.90;;;;;;5032778;28;20176;-82
2021/07/06 12:34:46;;;;;;;12.82;1.52;;;22.00;99.90;;;;;;5045940;28;20192;-82
2021/07/06 12:37:33;;;;;;;1.73;0.88;;;21.70;99.90;;;;;;5009960;28;20184;-80
2021/07/06 12:40:41;;;;;;;3.58;0.75;;;21.70;99.90;;;;;;5020543;28;20207;-81
2021/07/06 12:43:28;;;;;;;4.35;1.15;;;22.20;99.90;;;;;;5021493;28;20707;-83
2021/07/06 12:46:15;;;;;;;6.28;0.93;;;22.60;99.90;;;;;;5009756;28;20215;-86
2021/07/06 12:48:46;;;;;;;5.85;0.73;;;23.10;99.90;;;;;;5018023;28;20180;-80
2021/07/06 12:51:11;;;;;;;1.77;0.80;;;23.30;99.90;;;;;;5017816;28;20204;-81
2021/07/06 12:53:37;;;;;;;3.13;0.85;;;23.40;99.90;;;;;;5016991;28;20191;-82
2021/07/06 12:56:23;;;;;;;12.77;0.93;;;23.60;99.90;;;;;;5013641;28;20707;-79